createdAt,value
2018-07-04T00:02:35.334Z,73.73
2018-07-04T00:05:22.239Z,73.45
2018-07-04T00:08:08.781Z,73.50
2018-07-04T00:10:55.843Z,73.16
2018-07-04T00:13:42.957Z,72.90
2018-07-04T00:16:29.935Z,73.03
2018-07-04T00:19:16.715Z,73.32
2018-07-04T00:22:03.807Z,72.88
2018-07-04T00:24:50.370Z,72.78
2018-07-04T00:27:37.334Z,73.46
2018-07-04T00:30:24.024Z,73.28
2018-07-04T00:33:11.350Z,73.39
2018-07-04T00:35:58.127Z,73.47
2018-07-04T00:38:44.967Z,73.59
2018-07-04T00:41:31.711Z,73.04
2018-07-04T00:44:18.711Z,73.36
2018-07-04T00:47:05.455Z,73.60
2018-07-04T00:49:52.434Z,72.86
2018-07-04T00:52:39.035Z,73.32
2018-07-04T00:55:25.706Z,72.91
2018-07-04T00:58:12.356Z,74.12
2018-07-04T01:00:59.025Z,73.85
2018-07-04T01:03:45.626Z,73.46
2018-07-04T01:06:32.311Z,73.35
2018-07-04T01:09:19.315Z,73.32
2018-07-04T01:12:05.992Z,73.48
2018-07-04T01:14:53.233Z,73.80
2018-07-04T01:17:39.870Z,73.91
2018-07-04T01:20:31.150Z,75.17
2018-07-04T01:23:17.827Z,75.27
2018-07-04T01:26:04.966Z,75.25
2018-07-04T01:28:51.618Z,75.58
2018-07-04T01:31:38.713Z,75.68
2018-07-04T01:34:25.460Z,76.05
2018-07-04T01:37:12.443Z,76.47
2018-07-04T01:39:59.387Z,76.48
2018-07-04T01:42:46.470Z,76.18
2018-07-04T01:45:33.209Z,76.06
2018-07-04T01:48:20.473Z,75.67
2018-07-04T01:51:07.242Z,75.86
2018-07-04T01:53:53.963Z,76.06
2018-07-04T01:56:40.882Z,75.76
2018-07-04T01:59:27.697Z,75.62
2018-07-04T02:02:14.779Z,76.19
2018-07-04T02:05:01.604Z,76.21
2018-07-04T02:07:48.599Z,76.20
2018-07-04T02:10:35.471Z,76.73
2018-07-04T02:13:22.234Z,77.12
2018-07-04T02:16:08.874Z,76.40
2018-07-04T02:18:55.936Z,76.52
2018-07-04T02:21:42.627Z,76.75
2018-07-04T02:24:29.342Z,75.54
2018-07-04T02:27:16.374Z,75.20
2018-07-04T02:30:03.607Z,75.24
2018-07-04T02:32:50.399Z,74.99
2018-07-04T02:35:37.538Z,74.85
2018-07-04T02:38:24.534Z,74.86
2018-07-04T02:41:11.870Z,74.88
2018-07-04T02:43:58.496Z,75.16
2018-07-04T02:46:45.604Z,74.88
2018-07-04T02:49:32.350Z,75.79
2018-07-04T02:52:19.642Z,77.39
2018-07-04T02:55:06.223Z,77.63
2018-07-04T02:57:53.356Z,77.55
2018-07-04T03:00:40.258Z,77.58
2018-07-04T03:03:27.386Z,78.71
2018-07-04T03:06:14.300Z,79.29
2018-07-04T03:09:01.382Z,79.52
2018-07-04T03:11:48.366Z,79.29
2018-07-04T03:14:35.415Z,78.88
2018-07-04T03:17:21.817Z,78.50
2018-07-04T03:20:08.832Z,78.12
2018-07-04T03:22:55.687Z,78.44
2018-07-04T03:25:43.014Z,78.97
2018-07-04T03:28:29.578Z,79.16
2018-07-04T03:31:16.448Z,79.11
2018-07-04T03:34:03.298Z,79.06
2018-07-04T03:36:50.079Z,78.97
2018-07-04T03:39:37.057Z,78.54
2018-07-04T03:42:24.413Z,78.24
2018-07-04T03:45:11.192Z,77.93
2018-07-04T03:47:58.517Z,77.25
2018-07-04T03:50:44.960Z,76.53
2018-07-04T03:53:32.204Z,75.95
2018-07-04T03:56:19.186Z,76.00
2018-07-04T03:59:06.200Z,76.35
2018-07-04T04:01:52.974Z,75.89
2018-07-04T04:04:40.219Z,75.69
2018-07-04T04:07:26.921Z,75.50
2018-07-04T04:10:14.162Z,74.92
2018-07-04T04:13:00.903Z,73.87
2018-07-04T04:15:48.196Z,73.54
2018-07-04T04:18:34.688Z,74.57
2018-07-04T04:21:21.923Z,73.82
2018-07-04T04:24:08.812Z,73.57
2018-07-04T04:26:55.811Z,73.48
2018-07-04T04:29:42.767Z,72.20
2018-07-04T04:32:29.672Z,72.17
2018-07-04T04:35:16.503Z,72.22
2018-07-04T04:38:03.559Z,71.04
2018-07-04T04:40:50.279Z,71.81
2018-07-04T04:43:37.354Z,71.81
2018-07-04T04:46:24.105Z,70.49
2018-07-04T04:49:10.838Z,70.49
2018-07-04T04:51:57.375Z,69.67
2018-07-04T04:54:43.890Z,69.80
2018-07-04T04:57:30.450Z,69.19
2018-07-04T05:00:17.250Z,69.23
2018-07-04T05:03:03.895Z,69.47
2018-07-04T05:05:50.759Z,67.99
2018-07-04T05:08:37.439Z,68.08
2018-07-04T05:11:24.642Z,67.25
2018-07-04T05:14:11.310Z,66.53
2018-07-04T05:16:57.609Z,66.33
2018-07-04T05:19:43.994Z,65.76
2018-07-04T05:22:30.555Z,64.72
2018-07-04T05:25:17.359Z,64.32
2018-07-04T05:28:04.366Z,63.48
2018-07-04T05:30:51.271Z,62.02
2018-07-04T05:33:38.218Z,61.39
2018-07-04T05:36:25.101Z,60.66
2018-07-04T05:39:12.112Z,60.80
2018-07-04T05:41:58.831Z,60.01
2018-07-04T05:44:45.950Z,59.95
2018-07-04T05:47:32.952Z,59.59
2018-07-04T05:50:20.107Z,59.61
2018-07-04T05:53:06.998Z,59.22
2018-07-04T05:55:54.336Z,58.31
2018-07-04T05:58:41.069Z,58.51
2018-07-04T06:01:28.387Z,57.95
2018-07-04T06:04:15.143Z,58.10
2018-07-04T06:07:02.368Z,57.49
2018-07-04T06:09:49.023Z,58.19
2018-07-04T06:12:36.227Z,56.48
2018-07-04T06:15:22.908Z,55.68
2018-07-04T06:18:10.158Z,56.41
2018-07-04T06:20:56.860Z,55.47
2018-07-04T06:23:43.994Z,55.45
2018-07-04T06:26:30.779Z,54.70
2018-07-04T06:29:17.929Z,54.14
2018-07-04T06:32:04.611Z,54.48
2018-07-04T06:34:51.552Z,53.38
2018-07-04T06:37:41.407Z,54.02
2018-07-04T06:40:10.621Z,54.05
2018-07-04T06:42:39.019Z,54.74
2018-07-04T06:45:06.932Z,54.68
2018-07-04T06:47:35.171Z,54.10
2018-07-04T06:50:03.212Z,54.09
2018-07-04T06:52:31.127Z,53.80
2018-07-04T06:54:59.385Z,51.91
2018-07-04T06:57:27.386Z,50.93
2018-07-04T06:59:55.452Z,50.98
2018-07-04T07:02:23.904Z,50.90
2018-07-04T07:05:04.649Z,51.00
2018-07-04T07:07:52.084Z,50.41
2018-07-04T07:10:38.968Z,50.70
2018-07-04T07:13:25.681Z,49.86
2018-07-04T07:16:12.076Z,50.83
2018-07-04T07:18:59.130Z,50.47
2018-07-04T07:21:45.675Z,49.66
2018-07-04T07:24:32.876Z,50.81
2018-07-04T07:27:19.648Z,49.41
2018-07-04T07:30:06.902Z,49.47
2018-07-04T07:32:53.687Z,48.94
2018-07-04T07:35:40.511Z,49.19
2018-07-04T07:38:27.359Z,49.34
2018-07-04T07:41:14.265Z,49.42
2018-07-04T07:44:00.752Z,48.71
2018-07-04T07:46:47.430Z,47.87
2018-07-04T07:49:34.302Z,48.31
2018-07-04T07:52:21.603Z,48.22
2018-07-04T07:55:08.695Z,47.54
2018-07-04T07:57:55.979Z,46.53
2018-07-04T08:00:42.831Z,45.57
2018-07-04T08:03:30.071Z,45.77
2018-07-04T08:06:16.976Z,46.14
2018-07-04T08:09:04.827Z,45.06
2018-07-04T08:11:51.250Z,45.91
2018-07-04T08:14:38.330Z,45.61
2018-07-04T08:17:25.232Z,45.97
2018-07-04T08:20:12.174Z,45.34
2018-07-04T08:22:59.163Z,45.36
2018-07-04T08:25:47.272Z,45.59
2018-07-04T08:28:33.907Z,44.85
2018-07-04T08:31:20.956Z,45.16
2018-07-04T08:34:07.746Z,45.30
2018-07-04T08:36:54.987Z,45.42
2018-07-04T08:39:41.779Z,46.56
2018-07-04T08:42:29.010Z,43.87
2018-07-04T08:45:15.539Z,44.00
2018-07-04T08:48:02.635Z,44.74
2018-07-04T08:50:49.587Z,44.29
2018-07-04T08:53:36.871Z,44.11
2018-07-04T08:56:23.594Z,42.79
2018-07-04T08:59:10.716Z,42.82
2018-07-04T09:01:57.555Z,43.09
2018-07-04T09:04:44.411Z,42.95
2018-07-04T09:07:30.827Z,42.49
2018-07-04T09:10:17.519Z,42.46
2018-07-04T09:13:03.932Z,41.31
2018-07-04T09:15:50.963Z,42.41
2018-07-04T09:18:37.610Z,42.04
2018-07-04T09:21:24.243Z,41.75
2018-07-04T09:24:11.158Z,42.48
2018-07-04T09:26:58.410Z,42.43
2018-07-04T09:29:45.177Z,42.13
2018-07-04T09:32:32.460Z,42.61
2018-07-04T09:35:19.235Z,41.96
2018-07-04T09:38:06.523Z,41.43
2018-07-04T09:40:52.962Z,41.11
2018-07-04T09:43:39.771Z,40.72
2018-07-04T09:46:26.597Z,38.92
2018-07-04T09:49:13.439Z,37.24
2018-07-04T09:52:00.424Z,38.18
2018-07-04T09:54:47.455Z,38.73
2018-07-04T09:57:34.256Z,38.79
2018-07-04T10:00:25.492Z,38.93
2018-07-04T10:03:12.077Z,37.46
2018-07-04T10:05:59.215Z,36.60
2018-07-04T10:08:46.009Z,37.34
2018-07-04T10:11:33.643Z,36.50
2018-07-04T10:14:20.169Z,36.09
2018-07-04T10:17:06.889Z,35.60
2018-07-04T10:19:53.601Z,36.67
2018-07-04T10:22:40.863Z,36.17
2018-07-04T10:25:27.742Z,37.26
2018-07-04T10:28:14.935Z,37.04
2018-07-04T10:31:01.711Z,37.45
2018-07-04T10:33:49.624Z,37.16
2018-07-04T10:36:36.378Z,38.30
2018-07-04T10:39:23.713Z,37.63
2018-07-04T10:42:10.207Z,37.32
2018-07-04T10:44:56.549Z,36.85
2018-07-04T10:47:43.056Z,35.31
2018-07-04T10:50:29.619Z,35.05
2018-07-04T10:53:16.528Z,36.73
2018-07-04T10:56:03.120Z,35.67
2018-07-04T10:58:50.092Z,35.37
2018-07-04T11:01:36.696Z,35.56
2018-07-04T11:04:23.878Z,35.03
2018-07-04T11:07:10.441Z,34.17
2018-07-04T11:09:57.209Z,33.78
2018-07-04T11:12:44.432Z,32.45
2018-07-04T11:15:30.723Z,34.06
2018-07-04T11:18:17.580Z,33.47
2018-07-04T11:21:04.449Z,33.80
2018-07-04T11:23:51.368Z,33.13
2018-07-04T11:26:38.231Z,34.50
2018-07-04T11:29:25.603Z,34.14
2018-07-04T11:32:12.620Z,34.24
2018-07-04T11:34:59.534Z,34.60
2018-07-04T11:37:46.370Z,32.96
2018-07-04T11:40:33.731Z,33.27
2018-07-04T11:43:20.894Z,33.17
2018-07-04T11:45:58.015Z,31.57
2018-07-04T11:48:26.152Z,33.82
2018-07-04T11:50:56.132Z,34.52
2018-07-04T11:53:24.431Z,33.19
2018-07-04T11:55:52.556Z,34.78
2018-07-04T11:58:20.686Z,34.94
2018-07-04T12:00:49.138Z,36.79
2018-07-04T12:03:18.784Z,38.04
2018-07-04T12:05:59.809Z,39.70
2018-07-04T12:08:34.001Z,41.62
2018-07-04T12:11:02.555Z,41.71
2018-07-04T12:13:30.555Z,41.45
2018-07-04T12:15:58.606Z,43.19
2018-07-04T12:18:26.919Z,43.55
2018-07-04T12:20:54.991Z,43.69
2018-07-04T12:23:23.066Z,42.65
2018-07-04T12:25:51.492Z,42.35
2018-07-04T12:28:19.609Z,41.37
2018-07-04T12:30:47.700Z,39.56
2018-07-04T12:33:16.333Z,39.09
2018-07-04T12:35:44.458Z,37.77
2018-07-04T12:38:12.670Z,37.36
2018-07-04T12:40:40.729Z,35.11
2018-07-04T12:43:08.781Z,38.73
2018-07-04T12:45:39.547Z,36.03
2018-07-04T12:48:05.140Z,35.01
2018-07-04T12:50:34.003Z,34.77
2018-07-04T12:53:02.346Z,33.08
2018-07-04T12:55:44.754Z,32.43
2018-07-04T12:58:31.589Z,33.79
2018-07-04T13:01:18.884Z,33.39
2018-07-04T13:04:05.652Z,31.39
2018-07-04T13:06:53.028Z,32.00
2018-07-04T13:09:39.839Z,30.57
2018-07-04T13:12:27.300Z,29.96
2018-07-04T13:15:13.940Z,29.57
2018-07-04T13:18:00.992Z,30.01
2018-07-04T13:20:47.960Z,30.06
2018-07-04T13:23:35.233Z,30.41
2018-07-04T13:26:22.068Z,31.49
2018-07-04T13:29:09.237Z,30.47
2018-07-04T13:31:56.012Z,31.79
2018-07-04T13:34:43.257Z,32.36
2018-07-04T13:37:30.053Z,33.85
2018-07-04T13:40:16.714Z,33.87
2018-07-04T13:43:04.228Z,34.25
2018-07-04T13:45:51.179Z,33.28
2018-07-04T13:48:37.807Z,34.62
2018-07-04T13:51:24.770Z,32.69
2018-07-04T13:54:11.600Z,33.92
2018-07-04T13:56:58.653Z,33.86
2018-07-04T13:59:45.519Z,34.56
2018-07-04T14:02:32.431Z,34.21
2018-07-04T14:05:19.201Z,33.86
2018-07-04T14:08:06.371Z,33.30
2018-07-04T14:10:52.770Z,32.52
2018-07-04T14:13:39.643Z,31.73
2018-07-04T14:16:25.969Z,33.41
2018-07-04T14:19:13.208Z,31.31
2018-07-04T14:22:00.038Z,33.03
2018-07-04T14:24:47.402Z,33.50
2018-07-04T14:27:34.147Z,34.91
2018-07-04T14:30:20.926Z,33.58
2018-07-04T14:33:07.987Z,35.02
2018-07-04T14:35:55.072Z,38.02
2018-07-04T14:38:42.120Z,40.70
2018-07-04T14:41:28.810Z,38.24
2018-07-04T14:44:15.268Z,35.83
2018-07-04T14:47:02.027Z,35.47
2018-07-04T14:49:48.957Z,35.21
2018-07-04T14:52:35.876Z,39.92
2018-07-04T14:55:22.633Z,39.15
2018-07-04T14:58:09.904Z,40.66
2018-07-04T15:00:56.602Z,40.62
2018-07-04T15:03:44.144Z,40.97
2018-07-04T15:06:31.264Z,42.30
2018-07-04T15:09:18.590Z,45.30
2018-07-04T15:12:05.157Z,48.89
2018-07-04T15:14:52.119Z,52.68
2018-07-04T15:17:39.240Z,54.40
2018-07-04T15:20:26.245Z,68.77
2018-07-04T15:23:13.272Z,62.98
2018-07-04T15:26:00.688Z,67.24
2018-07-04T15:28:47.908Z,65.64
2018-07-04T15:31:35.334Z,69.70
2018-07-04T15:34:22.937Z,73.54
2018-07-04T15:37:10.032Z,75.92
2018-07-04T15:39:56.692Z,77.58
2018-07-04T15:42:43.775Z,79.50
2018-07-04T15:45:30.943Z,79.67
2018-07-04T15:48:18.324Z,83.82
2018-07-04T15:51:05.494Z,85.45
2018-07-04T15:53:53.224Z,86.77
2018-07-04T15:56:40.637Z,87.62
2018-07-04T15:59:28.035Z,88.62
2018-07-04T16:02:14.976Z,89.32
2018-07-04T16:05:02.505Z,89.34
2018-07-04T16:07:49.744Z,88.06
2018-07-04T16:10:37.393Z,87.47
2018-07-04T16:13:24.074Z,86.72
2018-07-04T16:16:11.292Z,88.17
2018-07-04T16:18:58.509Z,88.82
2018-07-04T16:21:46.135Z,88.83
2018-07-04T16:24:33.321Z,87.94
2018-07-04T16:27:20.894Z,88.46
2018-07-04T16:30:08.419Z,88.55
2018-07-04T16:32:55.843Z,88.78
2018-07-04T16:35:42.997Z,89.29
2018-07-04T16:38:29.970Z,89.39
2018-07-04T16:41:16.650Z,88.85
2018-07-04T16:44:04.324Z,89.47
2018-07-04T16:46:51.240Z,89.11
2018-07-04T16:49:38.972Z,89.58
2018-07-04T16:52:26.277Z,90.30
2018-07-04T16:55:13.715Z,90.66
2018-07-04T16:58:00.839Z,90.27
2018-07-04T17:00:48.369Z,90.17
2018-07-04T17:03:35.589Z,88.96
2018-07-04T17:06:23.313Z,89.40
2018-07-04T17:09:10.169Z,89.14
2018-07-04T17:11:57.269Z,88.75
2018-07-04T17:14:44.580Z,88.76
2018-07-04T17:17:31.668Z,88.94
2018-07-04T17:20:18.786Z,88.62
2018-07-04T17:23:06.653Z,89.15
2018-07-04T17:25:53.874Z,88.86
2018-07-04T17:28:41.218Z,89.02
2018-07-04T17:31:28.430Z,89.15
2018-07-04T17:34:15.684Z,89.39
2018-07-04T17:37:02.861Z,89.74
2018-07-04T17:39:49.658Z,90.03
2018-07-04T17:42:37.040Z,89.75
2018-07-04T17:45:24.689Z,88.91
2018-07-04T17:48:11.854Z,89.50
2018-07-04T17:50:59.454Z,89.32
2018-07-04T17:53:47.023Z,89.14
2018-07-04T17:56:34.648Z,89.40
2018-07-04T17:59:21.968Z,88.80
2018-07-04T18:02:09.392Z,88.28
2018-07-04T18:04:56.817Z,86.23
2018-07-04T18:07:45.043Z,88.74
2018-07-04T18:10:32.490Z,88.43
2018-07-04T18:13:20.682Z,87.79
2018-07-04T18:16:07.975Z,87.15
2018-07-04T18:18:55.572Z,87.56
2018-07-04T18:21:42.709Z,87.16
2018-07-04T18:24:30.144Z,88.37
2018-07-04T18:27:17.013Z,88.79
2018-07-04T18:30:04.196Z,89.45
2018-07-04T18:32:51.033Z,89.36
2018-07-04T18:35:38.739Z,90.29
2018-07-04T18:38:25.964Z,90.66
2018-07-04T18:41:13.772Z,90.67
2018-07-04T18:44:00.925Z,90.81
2018-07-04T18:46:48.417Z,90.63
2018-07-04T18:49:35.655Z,90.61
2018-07-04T18:52:22.724Z,90.55
2018-07-04T18:55:09.419Z,90.18
2018-07-04T18:57:56.495Z,90.27
2018-07-04T19:00:43.356Z,89.91
2018-07-04T19:03:31.045Z,88.81
2018-07-04T19:06:18.392Z,88.59
2018-07-04T19:09:06.906Z,88.60
2018-07-04T19:11:54.132Z,89.39
2018-07-04T19:14:41.798Z,89.82
2018-07-04T19:17:29.291Z,89.61
2018-07-04T19:20:17.022Z,89.20
2018-07-04T19:23:04.434Z,88.91
2018-07-04T19:25:51.094Z,88.94
2018-07-04T19:28:38.203Z,89.23
2018-07-04T19:31:24.943Z,89.49
2018-07-04T19:34:12.218Z,89.39
2018-07-04T19:36:58.878Z,89.76
2018-07-04T19:39:46.047Z,88.69
2018-07-04T19:42:32.725Z,87.39
2018-07-04T19:45:19.696Z,87.28
2018-07-04T19:48:06.625Z,87.08
2018-07-04T19:50:53.529Z,87.28
2018-07-04T19:53:39.934Z,87.29
2018-07-04T19:56:26.663Z,87.05
2018-07-04T19:59:13.078Z,85.67
2018-07-04T20:02:00.116Z,85.39
2018-07-04T20:04:46.778Z,85.13
2018-07-04T20:07:33.978Z,86.21
2018-07-04T20:10:20.768Z,86.76
2018-07-04T20:13:07.676Z,87.32
2018-07-04T20:15:54.271Z,87.86
2018-07-04T20:18:41.160Z,88.01
2018-07-04T20:21:28.039Z,88.56
2018-07-04T20:24:15.250Z,89.00
2018-07-04T20:27:01.767Z,89.00
2018-07-04T20:29:48.781Z,88.61
2018-07-04T20:32:35.817Z,88.94
2018-07-04T20:35:22.920Z,89.18
2018-07-04T20:38:09.490Z,89.36
2018-07-04T20:40:56.746Z,89.15
2018-07-04T20:43:43.535Z,89.34
2018-07-04T20:46:30.466Z,89.12
2018-07-04T20:49:17.701Z,89.21
2018-07-04T20:52:04.583Z,89.59
2018-07-04T20:54:51.568Z,89.84
2018-07-04T20:57:37.880Z,89.34
2018-07-04T21:00:24.952Z,89.05
2018-07-04T21:03:11.664Z,88.54
2018-07-04T21:05:58.661Z,87.58
2018-07-04T21:08:45.303Z,87.24
2018-07-04T21:11:32.594Z,85.82
2018-07-04T21:14:19.118Z,85.70
2018-07-04T21:17:06.012Z,87.27
2018-07-04T21:19:52.747Z,86.08
2018-07-04T21:22:40.248Z,86.19
2018-07-04T21:25:26.819Z,86.51
2018-07-04T21:28:13.579Z,86.74
2018-07-04T21:31:00.472Z,87.45
2018-07-04T21:33:47.904Z,87.52
2018-07-04T21:36:34.796Z,86.90
2018-07-04T21:39:21.965Z,86.49
2018-07-04T21:42:08.718Z,86.71
2018-07-04T21:44:55.563Z,87.10
2018-07-04T21:47:42.654Z,87.47
2018-07-04T21:50:29.966Z,87.07
2018-07-04T21:53:16.423Z,86.81
2018-07-04T21:56:02.880Z,85.94
2018-07-04T21:58:49.742Z,85.41
2018-07-04T22:01:36.947Z,85.14
2018-07-04T22:04:23.512Z,84.84
2018-07-04T22:07:10.928Z,85.44
2018-07-04T22:09:57.666Z,85.39
2018-07-04T22:12:44.748Z,85.67
2018-07-04T22:15:31.446Z,86.37
2018-07-04T22:18:18.530Z,87.29
2018-07-04T22:21:05.096Z,87.92
2018-07-04T22:23:51.934Z,87.26
2018-07-04T22:26:38.286Z,86.52
2018-07-04T22:29:24.839Z,87.01
2018-07-04T22:32:11.411Z,86.95
2018-07-04T22:34:58.075Z,86.91
2018-07-04T22:37:45.485Z,87.01
2018-07-04T22:40:32.190Z,87.34
2018-07-04T22:43:19.330Z,87.18
2018-07-04T22:46:06.134Z,86.91
2018-07-04T22:48:52.834Z,86.88
2018-07-04T22:51:39.650Z,86.03
2018-07-04T22:54:26.219Z,85.83
2018-07-04T22:57:12.860Z,85.57
2018-07-04T23:00:00.179Z,85.92
2018-07-04T23:02:46.902Z,86.12
2018-07-04T23:05:34.134Z,86.12
2018-07-04T23:08:21.143Z,86.29
2018-07-04T23:11:08.067Z,86.15
2018-07-04T23:13:54.859Z,86.69
2018-07-04T23:16:42.106Z,86.84
2018-07-04T23:19:28.526Z,87.04
2018-07-04T23:22:15.318Z,86.83
2018-07-04T23:25:02.004Z,86.78
2018-07-04T23:27:48.763Z,86.65
2018-07-04T23:30:35.518Z,87.15
2018-07-04T23:33:22.433Z,86.81
2018-07-04T23:36:09.686Z,86.27
2018-07-04T23:38:56.472Z,85.76
2018-07-04T23:41:43.919Z,85.21
2018-07-04T23:44:30.495Z,85.36
2018-07-04T23:47:17.315Z,85.43
2018-07-04T23:50:03.648Z,85.92
2018-07-04T23:52:50.371Z,85.61
2018-07-04T23:55:37.236Z,84.62
2018-07-04T23:58:24.586Z,83.92
